createdAt,value
2023-04-17T00:00:08.411Z,14.69
2023-04-17T00:02:35.286Z,14.61
2023-04-17T00:05:02.061Z,14.40
2023-04-17T00:07:28.719Z,14.38
2023-04-17T00:09:55.316Z,14.59
2023-04-17T00:12:21.916Z,14.60
2023-04-17T00:14:48.530Z,14.66
2023-04-17T00:17:15.125Z,14.82
2023-04-17T00:19:41.797Z,14.69
2023-04-17T00:22:08.391Z,14.60
2023-04-17T00:24:34.992Z,14.47
2023-04-17T00:27:01.576Z,14.49
2023-04-17T00:29:28.209Z,14.49
2023-04-17T00:31:54.802Z,14.49
2023-04-17T00:34:21.429Z,14.44
2023-04-17T00:36:48.015Z,14.56
2023-04-17T00:39:14.768Z,14.31
2023-04-17T00:41:41.481Z,14.04
2023-04-17T00:44:08.084Z,14.23
2023-04-17T00:46:34.723Z,14.25
2023-04-17T00:49:01.314Z,14.16
2023-04-17T00:51:27.910Z,14.15
2023-04-17T00:53:54.578Z,14.36
2023-04-17T00:56:21.256Z,14.64
2023-04-17T00:58:47.837Z,14.46
2023-04-17T01:01:14.478Z,14.59
2023-04-17T01:03:41.262Z,14.31
2023-04-17T01:06:08.077Z,14.35
2023-04-17T01:08:34.820Z,14.39
2023-04-17T01:11:01.414Z,14.35
2023-04-17T01:13:28.006Z,14.46
2023-04-17T01:15:54.752Z,14.32
2023-04-17T01:18:21.777Z,14.37
2023-04-17T01:20:48.404Z,14.49
2023-04-17T01:23:15.009Z,14.42
2023-04-17T01:25:41.919Z,14.62
2023-04-17T01:28:08.515Z,14.65
2023-04-17T01:30:35.188Z,14.41
2023-04-17T01:33:02.385Z,14.23
2023-04-17T01:35:29.082Z,14.27
2023-04-17T01:37:55.656Z,14.43
2023-04-17T01:40:22.254Z,14.32
2023-04-17T01:42:48.838Z,14.44
2023-04-17T01:45:15.477Z,14.66
2023-04-17T01:47:42.113Z,14.68
2023-04-17T01:50:08.791Z,14.51
2023-04-17T01:52:35.781Z,14.58
2023-04-17T01:55:02.353Z,14.15
2023-04-17T01:57:28.933Z,14.21
2023-04-17T01:59:55.631Z,14.61
2023-04-17T02:02:22.373Z,14.37
2023-04-17T02:04:49.097Z,14.34
2023-04-17T02:07:15.650Z,14.37
2023-04-17T02:09:42.256Z,13.95
2023-04-17T02:12:08.829Z,14.10
2023-04-17T02:14:35.449Z,14.07
2023-04-17T02:17:02.136Z,14.29
2023-04-17T02:19:28.730Z,13.79
2023-04-17T02:21:55.306Z,14.07
2023-04-17T02:24:21.870Z,14.35
2023-04-17T02:26:48.456Z,14.37
2023-04-17T02:29:15.145Z,14.54
2023-04-17T02:31:41.865Z,14.48
2023-04-17T02:34:08.426Z,14.66
2023-04-17T02:36:35.048Z,14.70
2023-04-17T02:39:01.612Z,14.66
2023-04-17T02:41:28.234Z,14.62
2023-04-17T02:43:54.836Z,14.38
2023-04-17T02:46:21.462Z,14.43
2023-04-17T02:48:48.055Z,14.74
2023-04-17T02:51:14.643Z,14.82
2023-04-17T02:53:41.217Z,14.77
2023-04-17T02:56:07.925Z,14.34
2023-04-17T02:58:34.668Z,14.54
2023-04-17T03:01:01.690Z,14.54
2023-04-17T03:03:28.598Z,14.41
2023-04-17T03:05:55.327Z,14.60
2023-04-17T03:08:21.949Z,14.50
2023-04-17T03:10:48.477Z,14.27
2023-04-17T03:13:17.541Z,14.61
2023-04-17T03:15:44.125Z,14.44
2023-04-17T03:18:10.722Z,14.46
2023-04-17T03:20:37.318Z,14.47
2023-04-17T03:23:04.002Z,14.33
2023-04-17T03:25:31.965Z,14.45
2023-04-17T03:27:58.684Z,14.47
2023-04-17T03:30:26.188Z,14.62
2023-04-17T03:32:52.831Z,14.44
2023-04-17T03:35:19.448Z,14.52
2023-04-17T03:37:46.027Z,14.58
2023-04-17T03:40:12.731Z,14.79
2023-04-17T03:42:39.669Z,14.73
2023-04-17T03:45:06.267Z,14.74
2023-04-17T03:47:32.873Z,14.75
2023-04-17T03:49:59.541Z,14.75
2023-04-17T03:52:26.170Z,15.05
2023-04-17T03:54:52.729Z,14.62
2023-04-17T03:57:19.310Z,15.05
2023-04-17T03:59:45.906Z,15.02
2023-04-17T04:02:12.647Z,15.11
2023-04-17T04:04:39.384Z,15.06
2023-04-17T04:07:06.140Z,14.77
2023-04-17T04:09:32.848Z,15.18
2023-04-17T04:11:59.641Z,15.43
2023-04-17T04:14:26.227Z,15.24
2023-04-17T04:16:52.833Z,15.34
2023-04-17T04:19:19.414Z,15.16
2023-04-17T04:21:45.998Z,15.11
2023-04-17T04:24:12.699Z,15.16
2023-04-17T04:26:39.252Z,14.63
2023-04-17T04:29:05.841Z,15.01
2023-04-17T04:31:33.041Z,14.82
2023-04-17T04:33:59.770Z,14.96
2023-04-17T04:36:26.359Z,15.17
2023-04-17T04:38:53.076Z,15.40
2023-04-17T04:41:19.633Z,14.81
2023-04-17T04:43:46.332Z,15.17
2023-04-17T04:46:12.977Z,15.29
2023-04-17T04:48:42.544Z,15.04
2023-04-17T04:51:09.514Z,15.04
2023-04-17T04:53:36.119Z,15.21
2023-04-17T04:56:02.708Z,14.94
2023-04-17T04:58:29.293Z,14.78
2023-04-17T05:00:55.975Z,14.71
2023-04-17T05:03:22.973Z,14.99
2023-04-17T05:05:49.725Z,14.85
2023-04-17T05:08:16.293Z,15.24
2023-04-17T05:10:42.997Z,15.28
2023-04-17T05:13:09.621Z,15.48
2023-04-17T05:15:36.318Z,15.45
2023-04-17T05:18:02.921Z,15.25
2023-04-17T05:20:29.627Z,14.57
2023-04-17T05:22:56.228Z,14.86
2023-04-17T05:25:22.863Z,15.24
2023-04-17T05:27:49.462Z,15.43
2023-04-17T05:30:16.031Z,15.52
2023-04-17T05:32:42.662Z,15.81
2023-04-17T05:35:09.278Z,15.60
2023-04-17T05:37:35.862Z,15.69
2023-04-17T05:40:02.455Z,15.25
2023-04-17T05:42:29.112Z,15.51
2023-04-17T05:44:55.735Z,15.47
2023-04-17T05:47:22.507Z,15.46
2023-04-17T05:49:49.113Z,15.25
2023-04-17T05:52:15.778Z,15.25
2023-04-17T05:54:42.472Z,15.21
2023-04-17T05:57:09.268Z,15.65
2023-04-17T05:59:35.840Z,15.83
2023-04-17T06:02:02.554Z,15.59
2023-04-17T06:04:29.474Z,15.83
2023-04-17T06:06:56.183Z,16.10
2023-04-17T06:09:23.953Z,16.17
2023-04-17T06:11:52.318Z,15.96
2023-04-17T06:14:20.806Z,16.21
2023-04-17T06:16:47.651Z,16.45
2023-04-17T06:19:14.465Z,16.39
2023-04-17T06:21:41.292Z,16.58
2023-04-17T06:24:07.876Z,16.41
2023-04-17T06:26:34.485Z,16.63
2023-04-17T06:29:02.062Z,16.42
2023-04-17T06:31:28.830Z,16.10
2023-04-17T06:33:55.422Z,16.15
2023-04-17T06:36:22.083Z,16.35
2023-04-17T06:38:48.726Z,16.61
2023-04-17T06:41:15.318Z,16.89
2023-04-17T06:43:41.915Z,17.05
2023-04-17T06:46:08.549Z,17.06
2023-04-17T06:48:35.195Z,17.19
2023-04-17T06:51:01.816Z,17.13
2023-04-17T06:53:28.438Z,17.02
2023-04-17T06:55:55.125Z,17.17
2023-04-17T06:58:21.682Z,17.53
2023-04-17T07:00:48.335Z,17.24
2023-04-17T07:03:15.039Z,17.31
2023-04-17T07:05:41.716Z,17.26
2023-04-17T07:08:08.314Z,17.41
2023-04-17T07:10:34.893Z,17.75
2023-04-17T07:13:01.549Z,17.68
2023-04-17T07:15:28.309Z,17.81
2023-04-17T07:17:54.979Z,18.03
2023-04-17T07:20:21.592Z,18.30
2023-04-17T07:22:48.203Z,18.58
2023-04-17T07:25:15.702Z,18.47
2023-04-17T07:27:42.271Z,18.40
2023-04-17T07:30:08.887Z,18.59
2023-04-17T07:32:35.528Z,18.59
2023-04-17T07:35:02.142Z,18.74
2023-04-17T07:37:28.701Z,18.89
2023-04-17T07:39:55.319Z,19.15
2023-04-17T07:42:21.910Z,18.34
2023-04-17T07:44:48.470Z,18.57
2023-04-17T07:47:15.687Z,18.76
2023-04-17T07:49:42.312Z,18.90
2023-04-17T07:52:08.918Z,18.72
2023-04-17T07:54:35.480Z,18.51
2023-04-17T07:57:02.079Z,18.18
2023-04-17T07:59:28.713Z,17.86
2023-04-17T08:01:55.391Z,18.64
2023-04-17T08:04:22.209Z,18.96
2023-04-17T08:06:48.860Z,19.40
2023-04-17T08:09:15.457Z,19.20
2023-04-17T08:11:53.765Z,19.09
2023-04-17T08:14:23.929Z,18.65
2023-04-17T08:16:50.608Z,19.02
2023-04-17T08:19:17.245Z,19.44
2023-04-17T08:21:43.835Z,19.08
2023-04-17T08:24:10.396Z,19.19
2023-04-17T08:26:37.030Z,19.18
2023-04-17T08:29:03.632Z,18.73
2023-04-17T08:31:30.236Z,18.18
2023-04-17T08:34:10.377Z,18.88
2023-04-17T08:36:40.732Z,18.82
2023-04-17T08:39:07.323Z,18.94
2023-04-17T08:41:33.876Z,18.76
2023-04-17T08:44:00.528Z,19.15
2023-04-17T08:46:27.234Z,18.94
2023-04-17T08:48:53.872Z,19.14
2023-04-17T08:51:20.468Z,19.45
2023-04-17T08:53:47.060Z,19.08
2023-04-17T08:56:13.640Z,19.17
2023-04-17T08:58:40.196Z,19.27
2023-04-17T09:01:06.835Z,19.17
2023-04-17T09:03:33.548Z,19.40
2023-04-17T09:06:00.291Z,19.30
2023-04-17T09:08:26.918Z,19.57
2023-04-17T09:10:53.582Z,19.73
2023-04-17T09:13:20.242Z,19.56
2023-04-17T09:15:46.901Z,19.73
2023-04-17T09:18:13.570Z,19.66
2023-04-17T09:20:40.150Z,20.20
2023-04-17T09:23:06.727Z,20.20
2023-04-17T09:25:33.308Z,20.34
2023-04-17T09:27:59.918Z,20.12
2023-04-17T09:30:26.537Z,20.41
2023-04-17T09:32:53.165Z,20.66
2023-04-17T09:35:19.804Z,20.57
2023-04-17T09:37:46.486Z,20.91
2023-04-17T09:40:13.191Z,20.72
2023-04-17T09:42:39.779Z,20.88
2023-04-17T09:45:06.390Z,21.27
2023-04-17T09:47:32.976Z,21.56
2023-04-17T09:49:59.608Z,21.64
2023-04-17T09:52:26.213Z,21.50
2023-04-17T09:54:52.834Z,21.90
2023-04-17T09:57:19.422Z,21.90
2023-04-17T09:59:46.063Z,22.28
2023-04-17T10:02:12.795Z,21.48
2023-04-17T10:04:39.532Z,21.47
2023-04-17T10:07:06.189Z,21.92
2023-04-17T10:09:32.758Z,22.13
2023-04-17T10:11:59.468Z,21.77
2023-04-17T10:14:26.172Z,21.75
2023-04-17T10:16:53.092Z,21.93
2023-04-17T10:19:19.761Z,22.38
2023-04-17T10:21:46.353Z,22.54
2023-04-17T10:24:13.117Z,21.76
2023-04-17T10:26:39.854Z,22.05
2023-04-17T10:29:06.738Z,22.09
2023-04-17T10:31:33.432Z,22.08
2023-04-17T10:34:00.087Z,21.73
2023-04-17T10:36:26.700Z,21.69
2023-04-17T10:38:53.483Z,21.75
2023-04-17T10:41:20.124Z,22.09
2023-04-17T10:43:46.722Z,21.56
2023-04-17T10:46:13.437Z,21.77
2023-04-17T10:48:40.167Z,21.34
2023-04-17T10:51:06.803Z,21.52
2023-04-17T10:53:33.413Z,21.93
2023-04-17T10:55:59.996Z,22.26
2023-04-17T10:58:31.671Z,22.42
2023-04-17T11:00:58.637Z,22.31
2023-04-17T11:03:25.336Z,22.17
2023-04-17T11:05:52.022Z,22.62
2023-04-17T11:08:18.611Z,22.74
2023-04-17T11:10:45.219Z,22.89
2023-04-17T11:13:11.792Z,22.58
2023-04-17T11:15:38.474Z,22.48
2023-04-17T11:18:05.148Z,22.41
2023-04-17T11:20:31.769Z,22.18
2023-04-17T11:22:58.393Z,21.76
2023-04-17T11:25:25.177Z,22.19
2023-04-17T11:27:51.766Z,22.19
2023-04-17T11:30:18.343Z,22.36
2023-04-17T11:32:44.981Z,22.32
2023-04-17T11:35:11.644Z,22.47
2023-04-17T11:37:38.378Z,22.07
2023-04-17T11:40:05.064Z,22.17
2023-04-17T11:42:31.632Z,22.27
2023-04-17T11:44:58.298Z,22.49
2023-04-17T11:47:25.108Z,22.37
2023-04-17T11:49:51.982Z,22.68
2023-04-17T11:52:18.591Z,22.55
2023-04-17T11:54:45.169Z,23.00
2023-04-17T11:57:11.801Z,23.22
2023-04-17T11:59:38.366Z,24.35
2023-04-17T12:02:05.023Z,24.53
2023-04-17T12:04:31.881Z,23.99
2023-04-17T12:06:59.770Z,22.94
2023-04-17T12:09:26.461Z,23.25
2023-04-17T12:11:53.104Z,23.61
2023-04-17T12:14:19.709Z,23.47
2023-04-17T12:16:46.334Z,23.14
2023-04-17T12:19:13.157Z,23.08
2023-04-17T12:21:39.873Z,23.15
2023-04-17T12:24:06.515Z,23.54
2023-04-17T12:26:33.092Z,22.75
2023-04-17T12:28:59.716Z,23.01
2023-04-17T12:31:26.702Z,23.21
2023-04-17T12:33:53.375Z,23.12
2023-04-17T12:36:20.146Z,23.33
2023-04-17T12:38:46.771Z,22.97
2023-04-17T12:41:13.709Z,22.91
2023-04-17T12:43:40.309Z,22.12
2023-04-17T12:46:07.030Z,21.78
2023-04-17T12:48:33.645Z,22.32
2023-04-17T12:51:00.428Z,23.70
2023-04-17T12:53:27.046Z,24.87
2023-04-17T12:55:53.646Z,24.79
2023-04-17T12:58:20.205Z,24.84
2023-04-17T13:00:47.208Z,24.74
2023-04-17T13:03:13.958Z,23.99
2023-04-17T13:05:40.621Z,23.51
2023-04-17T13:08:07.209Z,23.69
2023-04-17T13:10:34.220Z,23.15
2023-04-17T13:13:01.173Z,23.27
2023-04-17T13:15:28.053Z,23.06
2023-04-17T13:17:54.737Z,22.65
2023-04-17T13:20:21.688Z,22.77
2023-04-17T13:22:48.522Z,23.21
2023-04-17T13:25:15.094Z,23.06
2023-04-17T13:27:41.714Z,22.93
2023-04-17T13:30:08.345Z,23.30
2023-04-17T13:32:35.336Z,23.21
2023-04-17T13:35:01.974Z,23.43
2023-04-17T13:37:28.574Z,23.61
2023-04-17T13:39:55.141Z,23.94
2023-04-17T13:42:21.745Z,23.63
2023-04-17T13:44:48.344Z,23.80
2023-04-17T13:47:15.806Z,23.60
2023-04-17T13:49:42.390Z,23.67
2023-04-17T13:52:09.002Z,23.63
2023-04-17T13:54:35.586Z,23.66
2023-04-17T13:57:02.186Z,23.49
2023-04-17T13:59:29.060Z,23.52
2023-04-17T14:01:55.784Z,24.56
2023-04-17T14:04:22.664Z,24.74
2023-04-17T14:06:49.320Z,24.94
2023-04-17T14:09:15.918Z,25.15
2023-04-17T14:11:42.487Z,25.24
2023-04-17T14:14:09.086Z,24.79
2023-04-17T14:16:35.641Z,24.74
2023-04-17T14:19:12.655Z,24.97
2023-04-17T14:21:40.948Z,25.05
2023-04-17T14:24:07.513Z,24.21
2023-04-17T14:26:34.209Z,24.09
2023-04-17T14:29:00.798Z,23.67
2023-04-17T14:31:27.410Z,23.36
2023-04-17T14:33:54.024Z,23.17
2023-04-17T14:36:20.986Z,23.52
2023-04-17T14:38:47.687Z,23.25
2023-04-17T14:41:14.290Z,23.15
2023-04-17T14:43:40.896Z,23.67
2023-04-17T14:46:07.520Z,23.94
2023-04-17T14:48:41.106Z,23.67
2023-04-17T14:51:18.715Z,23.60
2023-04-17T14:53:45.316Z,23.18
2023-04-17T14:56:11.979Z,22.23
2023-04-17T14:58:38.578Z,22.62
2023-04-17T15:01:05.245Z,23.18
2023-04-17T15:03:32.040Z,23.81
2023-04-17T15:05:59.048Z,24.13
2023-04-17T15:08:25.672Z,23.77
2023-04-17T15:10:52.283Z,23.96
2023-04-17T15:13:18.881Z,24.35
2023-04-17T15:15:45.447Z,24.62
2023-04-17T15:18:12.024Z,24.89
2023-04-17T15:20:38.600Z,23.99
2023-04-17T15:23:05.175Z,23.52
2023-04-17T15:25:31.798Z,23.75
2023-04-17T15:27:58.361Z,23.99
2023-04-17T15:30:24.962Z,23.93
2023-04-17T15:32:51.549Z,24.36
2023-04-17T15:35:18.157Z,23.80
2023-04-17T15:37:44.831Z,24.18
2023-04-17T15:40:11.434Z,24.28
2023-04-17T15:42:38.052Z,24.29
2023-04-17T15:45:04.621Z,23.83
2023-04-17T15:47:31.304Z,24.11
2023-04-17T15:49:58.043Z,24.12
2023-04-17T15:52:24.694Z,23.89
2023-04-17T15:54:51.333Z,24.16
2023-04-17T15:57:18.193Z,23.99
2023-04-17T15:59:44.783Z,24.27
2023-04-17T16:02:11.513Z,24.25
2023-04-17T16:04:38.500Z,24.06
2023-04-17T16:07:05.374Z,23.99
2023-04-17T16:09:31.953Z,23.95
2023-04-17T16:11:58.538Z,23.62
2023-04-17T16:14:25.164Z,24.02
2023-04-17T16:16:51.723Z,24.01
2023-04-17T16:19:18.303Z,24.20
2023-04-17T16:21:44.903Z,24.28
2023-04-17T16:24:11.489Z,24.07
2023-04-17T16:26:38.034Z,23.60
2023-04-17T16:29:04.635Z,23.39
2023-04-17T16:31:31.256Z,23.52
2023-04-17T16:33:57.963Z,23.63
2023-04-17T16:36:24.571Z,23.62
2023-04-17T16:38:51.151Z,23.72
2023-04-17T16:41:17.738Z,23.32
2023-04-17T16:43:44.336Z,23.26
2023-04-17T16:46:20.601Z,23.42
2023-04-17T16:48:49.523Z,22.99
2023-04-17T16:51:16.218Z,22.76
2023-04-17T16:53:42.944Z,23.23
2023-04-17T16:56:09.548Z,22.91
2023-04-17T16:58:36.217Z,22.59
2023-04-17T17:01:02.850Z,22.35
2023-04-17T17:03:29.465Z,22.17
2023-04-17T17:05:56.044Z,22.29
2023-04-17T17:08:22.597Z,21.64
2023-04-17T17:10:49.238Z,21.42
2023-04-17T17:13:15.797Z,21.00
2023-04-17T17:15:42.397Z,20.63
2023-04-17T17:18:09.008Z,20.79
2023-04-17T17:20:35.604Z,20.93
2023-04-17T17:23:02.455Z,20.71
2023-04-17T17:25:29.445Z,21.12
2023-04-17T17:27:56.158Z,21.19
2023-04-17T17:30:23.113Z,21.13
2023-04-17T17:32:49.771Z,20.99
2023-04-17T17:35:16.369Z,20.80
2023-04-17T17:37:42.980Z,20.69
2023-04-17T17:40:09.938Z,20.69
2023-04-17T17:42:36.527Z,20.47
2023-04-17T17:45:03.084Z,20.34
2023-04-17T17:47:29.772Z,20.34
2023-04-17T17:49:56.397Z,20.41
2023-04-17T17:52:23.107Z,20.39
2023-04-17T17:54:49.695Z,20.16
2023-04-17T17:57:16.325Z,19.87
2023-04-17T17:59:42.913Z,19.96
2023-04-17T18:02:09.647Z,19.86
2023-04-17T18:04:36.384Z,19.76
2023-04-17T18:07:03.413Z,19.58
2023-04-17T18:09:30.044Z,19.56
2023-04-17T18:11:56.624Z,19.18
2023-04-17T18:14:23.213Z,19.38
2023-04-17T18:16:49.777Z,19.45
2023-04-17T18:19:16.397Z,19.32
2023-04-17T18:21:44.192Z,19.13
2023-04-17T18:24:12.441Z,19.10
2023-04-17T18:26:39.376Z,19.14
2023-04-17T18:29:06.120Z,19.16
2023-04-17T18:31:32.763Z,19.06
2023-04-17T18:33:59.356Z,18.89
2023-04-17T18:36:25.913Z,18.68
2023-04-17T18:38:52.505Z,18.44
2023-04-17T18:41:19.114Z,18.63
2023-04-17T18:43:45.706Z,18.75
2023-04-17T18:46:12.456Z,18.90
2023-04-17T18:48:39.083Z,18.99
2023-04-17T18:51:05.828Z,18.62
2023-04-17T18:53:32.433Z,18.70
2023-04-17T18:55:59.062Z,18.66
2023-04-17T18:58:25.682Z,18.62
2023-04-17T19:00:52.303Z,18.60
2023-04-17T19:03:18.919Z,18.66
2023-04-17T19:05:45.595Z,18.17
2023-04-17T19:08:12.212Z,17.12
2023-04-17T19:10:40.104Z,17.65
2023-04-17T19:13:06.880Z,17.57
2023-04-17T19:15:33.537Z,18.09
2023-04-17T19:18:00.248Z,17.83
2023-04-17T19:20:26.860Z,17.76
2023-04-17T19:22:53.450Z,17.80
2023-04-17T19:25:20.037Z,17.83
2023-04-17T19:27:46.677Z,17.99
2023-04-17T19:30:13.340Z,18.08
2023-04-17T19:32:39.927Z,18.14
2023-04-17T19:35:06.570Z,18.16
2023-04-17T19:37:33.154Z,18.05
2023-04-17T19:39:59.850Z,17.92
2023-04-17T19:42:27.035Z,17.57
2023-04-17T19:44:53.614Z,17.82
2023-04-17T19:47:20.187Z,17.57
2023-04-17T19:49:46.796Z,17.59
2023-04-17T19:52:13.385Z,17.64
2023-04-17T19:54:40.030Z,17.80
2023-04-17T19:57:06.621Z,17.74
2023-04-17T19:59:33.531Z,17.80
2023-04-17T20:02:00.145Z,17.74
2023-04-17T20:04:27.167Z,17.87
2023-04-17T20:06:54.223Z,17.76
2023-04-17T20:09:20.810Z,17.67
2023-04-17T20:11:47.378Z,17.82
2023-04-17T20:14:14.106Z,17.63
2023-04-17T20:16:40.781Z,17.60
2023-04-17T20:19:07.360Z,17.36
2023-04-17T20:21:33.986Z,17.54
2023-04-17T20:24:00.628Z,17.62
2023-04-17T20:26:27.258Z,16.97
2023-04-17T20:28:53.857Z,17.07
2023-04-17T20:31:20.455Z,17.29
2023-04-17T20:33:47.094Z,17.38
2023-04-17T20:36:13.690Z,16.94
2023-04-17T20:38:40.295Z,17.20
2023-04-17T20:41:06.857Z,17.31
2023-04-17T20:43:33.421Z,16.97
2023-04-17T20:46:00.133Z,17.06
2023-04-17T20:48:27.174Z,17.00
2023-04-17T20:50:53.785Z,16.46
2023-04-17T20:53:20.357Z,16.75
2023-04-17T20:55:47.075Z,16.50
2023-04-17T20:58:13.892Z,16.47
2023-04-17T21:00:50.699Z,16.64
2023-04-17T21:03:24.900Z,16.63
2023-04-17T21:05:51.520Z,16.47
2023-04-17T21:08:18.113Z,16.52
2023-04-17T21:10:44.671Z,16.36
2023-04-17T21:13:11.266Z,16.38
2023-04-17T21:15:37.850Z,16.38
2023-04-17T21:18:04.468Z,16.31
2023-04-17T21:20:31.093Z,16.35
2023-04-17T21:22:57.680Z,16.10
2023-04-17T21:25:24.242Z,16.04
2023-04-17T21:27:51.047Z,15.98
2023-04-17T21:30:17.615Z,15.88
2023-04-17T21:32:44.237Z,15.97
2023-04-17T21:35:10.849Z,16.06
2023-04-17T21:37:37.404Z,15.85
2023-04-17T21:40:03.983Z,15.70
2023-04-17T21:42:30.576Z,15.80
2023-04-17T21:44:57.170Z,15.78
2023-04-17T21:47:23.885Z,15.81
2023-04-17T21:49:50.723Z,16.04
2023-04-17T21:52:17.305Z,15.77
2023-04-17T21:54:43.861Z,15.69
2023-04-17T21:57:10.459Z,15.72
2023-04-17T21:59:37.032Z,15.67
2023-04-17T22:02:03.647Z,15.90
2023-04-17T22:04:30.272Z,15.93
2023-04-17T22:06:57.090Z,15.91
2023-04-17T22:09:23.667Z,15.84
2023-04-17T22:11:50.252Z,15.82
2023-04-17T22:14:16.943Z,15.89
2023-04-17T22:16:43.605Z,15.76
2023-04-17T22:19:10.236Z,15.85
2023-04-17T22:21:36.842Z,15.70
2023-04-17T22:24:03.405Z,15.65
2023-04-17T22:26:29.998Z,15.57
2023-04-17T22:28:56.556Z,15.33
2023-04-17T22:31:23.184Z,15.50
2023-04-17T22:33:49.790Z,15.65
2023-04-17T22:36:16.398Z,15.61
2023-04-17T22:38:43.012Z,15.32
2023-04-17T22:41:09.582Z,15.49
2023-04-17T22:43:36.617Z,15.47
2023-04-17T22:46:03.217Z,15.61
2023-04-17T22:48:29.901Z,15.46
2023-04-17T22:50:56.535Z,15.30
2023-04-17T22:53:23.151Z,15.34
2023-04-17T22:55:49.747Z,15.30
2023-04-17T22:58:16.391Z,15.36
2023-04-17T23:00:43.079Z,15.26
2023-04-17T23:03:09.839Z,15.33
2023-04-17T23:05:36.625Z,15.14
2023-04-17T23:08:03.235Z,15.07
2023-04-17T23:10:29.801Z,15.00
2023-04-17T23:12:56.393Z,14.82
2023-04-17T23:15:23.061Z,14.95
2023-04-17T23:17:49.651Z,14.34
2023-04-17T23:20:16.320Z,14.66
2023-04-17T23:22:42.931Z,14.51
2023-04-17T23:25:09.530Z,14.56
2023-04-17T23:27:36.192Z,14.54
2023-04-17T23:30:02.846Z,14.39
2023-04-17T23:32:29.455Z,14.26
2023-04-17T23:34:56.030Z,14.38
2023-04-17T23:37:22.600Z,14.36
2023-04-17T23:39:49.237Z,13.95
2023-04-17T23:42:15.810Z,14.12
2023-04-17T23:44:42.496Z,14.16
2023-04-17T23:47:09.120Z,14.03
2023-04-17T23:49:35.796Z,13.92
2023-04-17T23:52:02.459Z,13.82
2023-04-17T23:54:29.077Z,13.57
2023-04-17T23:56:55.669Z,13.88
2023-04-17T23:59:22.261Z,13.74
